Time;durP1;ratioP1;P1;durP2;ratioP2;P2;SDS_P1;SDS_P2;PMS_P1;PMS_P2;Temp;Humidity;BMP_temperature;BMP_pressure;BME280_temperature;BME280_humidity;BME280_pressure;Samples;Min_cycle;Max_cycle;Signal;HPM_P1;HPM_P2
2022/10/10 00:00:47;;;;;;;17.23;6.72;;;;;;;9.00;100.00;101178.03;5008499;28;20072;-77
2022/10/10 00:03:14;;;;;;;15.48;6.72;;;;;;;8.94;100.00;101171.25;5009990;28;20068;-78
2022/10/10 00:05:41;;;;;;;13.48;5.88;;;;;;;8.95;100.00;101167.34;5008996;28;21218;-77
2022/10/10 00:08:08;;;;;;;14.57;6.03;;;;;;;8.95;100.00;101175.63;4991329;28;20573;-79
2022/10/10 00:10:35;;;;;;;16.55;5.88;;;;;;;8.85;100.00;101170.75;5006345;28;20474;-76
2022/10/10 00:13:03;;;;;;;16.35;6.35;;;;;;;8.81;100.00;101169.09;5008051;28;20830;-76
2022/10/10 00:15:29;;;;;;;15.57;6.43;;;;;;;8.76;100.00;101173.00;5004745;28;20065;-76
2022/10/10 00:17:56;;;;;;;14.75;6.07;;;;;;;8.78;100.00;101176.16;5010747;28;20235;-79
2022/10/10 00:20:22;;;;;;;15.50;6.88;;;;;;;8.78;100.00;101176.16;5012576;28;20119;-76
2022/10/10 00:22:49;;;;;;;13.73;6.22;;;;;;;8.80;100.00;101173.81;4995968;28;20053;-79
2022/10/10 00:25:16;;;;;;;14.93;6.57;;;;;;;8.77;100.00;101165.50;5010084;28;20050;-76
2022/10/10 00:27:42;;;;;;;18.10;6.97;;;;;;;8.72;100.00;101163.88;5007964;28;20041;-76
2022/10/10 00:30:09;;;;;;;17.55;7.18;;;;;;;8.72;100.00;101174.91;5010185;28;20052;-77
2022/10/10 00:32:36;;;;;;;14.15;6.65;;;;;;;8.71;100.00;101173.28;4993402;28;20719;-78
2022/10/10 00:35:04;;;;;;;15.70;6.93;;;;;;;8.65;100.00;101157.44;5007109;28;20135;-76
2022/10/10 00:37:30;;;;;;;17.08;7.25;;;;;;;8.58;100.00;101173.91;5008645;28;20413;-77
2022/10/10 00:39:57;;;;;;;17.95;8.73;;;;;;;8.53;100.00;101160.44;5006485;28;20052;-76
2022/10/10 00:42:23;;;;;;;17.55;7.22;;;;;;;8.52;100.00;101161.59;5007137;28;20170;-77
2022/10/10 00:45:18;;;;;;;15.40;6.88;;;;;;;8.51;100.00;101162.78;5008551;28;20049;-76
2022/10/10 00:47:45;;;;;;;19.52;7.07;;;;;;;8.45;100.00;101165.06;5006853;28;20126;-78
2022/10/10 00:50:11;;;;;;;18.45;7.30;;;;;;;8.46;100.00;101166.66;5008865;28;20580;-76
2022/10/10 00:52:38;;;;;;;17.60;6.53;;;;;;;8.40;100.00;101142.53;5007024;28;20049;-78
2022/10/10 00:55:05;;;;;;;17.08;7.70;;;;;;;8.47;100.00;101159.19;5005957;28;20053;-76
2022/10/10 00:57:31;;;;;;;17.55;7.25;;;;;;;8.43;100.00;101150.84;5007196;28;20580;-78
2022/10/10 00:59:59;;;;;;;15.90;6.75;;;;;;;8.45;100.00;101159.56;5009306;28;20075;-79
2022/10/10 01:02:25;;;;;;;17.23;7.22;;;;;;;8.36;100.00;101155.44;5014356;28;20064;-76
2022/10/10 01:04:51;;;;;;;16.25;6.78;;;;;;;8.30;100.00;101145.94;5007906;28;20146;-76
2022/10/10 01:07:23;;;;;;;15.18;6.50;;;;;;;8.31;100.00;101144.75;5009249;28;20053;-75
2022/10/10 01:09:53;;;;;;;18.05;7.18;;;;;;;8.31;100.00;101155.78;5005408;28;20057;-78
2022/10/10 01:13:03;;;;;;;15.57;6.63;;;;;;;8.24;100.00;101147.41;5006843;28;20053;-75
2022/10/10 01:15:55;;;;;;;15.52;6.95;;;;;;;8.21;100.00;101137.91;5008919;28;20084;-76
2022/10/10 01:18:37;;;;;;;15.40;7.28;;;;;;;8.23;100.00;101146.59;5007669;28;20098;-76
2022/10/10 01:21:25;;;;;;;20.00;7.78;;;;;;;8.22;100.00;101145.03;5005463;28;20045;-76
2022/10/10 01:24:10;;;;;;;15.65;6.75;;;;;;;8.20;100.00;101136.28;5006672;28;20061;-76
2022/10/10 01:26:59;;;;;;;17.23;6.68;;;;;;;8.20;100.00;101144.56;4989624;28;20050;-76
2022/10/10 01:29:31;;;;;;;16.10;7.53;;;;;;;8.23;100.00;101141.09;5007708;28;20056;-75
2022/10/10 01:32:21;;;;;;;15.23;6.35;;;;;;;8.15;100.00;101128.34;5022106;28;20095;-76
2022/10/10 01:35:13;;;;;;;16.67;7.30;;;;;;;8.13;100.00;101129.88;5022001;28;20053;-77
2022/10/10 01:37:40;;;;;;;14.80;6.43;;;;;;;8.14;100.00;101131.47;5011790;28;20050;-76
2022/10/10 01:40:27;;;;;;;18.27;7.03;;;;;;;8.15;100.00;101127.53;5020171;28;20061;-76
2022/10/10 01:42:57;;;;;;;16.92;6.68;;;;;;;8.06;100.00;101125.03;5024204;28;20064;-77
2022/10/10 01:45:24;;;;;;;16.15;6.32;;;;;;;8.02;100.00;101121.44;5020244;28;20056;-78
2022/10/10 01:47:54;;;;;;;14.85;6.72;;;;;;;8.01;100.00;101133.66;5020060;28;20738;-77
2022/10/10 01:50:24;;;;;;;14.48;7.00;;;;;;;7.97;100.00;101119.03;5027037;28;20045;-75
2022/10/10 01:53:18;;;;;;;17.25;7.18;;;;;;;7.92;100.00;101119.31;5029919;28;20690;-78
2022/10/10 01:55:51;;;;;;;16.63;6.35;;;;;;;7.92;100.00;101116.56;5020097;28;20037;-75
2022/10/10 01:58:46;;;;;;;15.32;6.60;;;;;;;7.86;100.00;101107.00;5008601;28;20049;-77
2022/10/10 02:01:33;;;;;;;16.77;6.25;;;;;;;7.89;100.00;101103.53;5023487;28;20398;-75
2022/10/10 02:04:30;;;;;;;17.73;6.70;;;;;;;7.88;100.00;101099.19;5024702;28;20046;-76
2022/10/10 02:07:04;;;;;;;16.02;6.20;;;;;;;7.87;100.00;101103.13;5027742;28;20046;-75
2022/10/10 02:09:36;;;;;;;15.27;6.75;;;;;;;7.82;100.00;101106.16;5008699;28;20513;-77
2022/10/10 02:12:03;;;;;;;15.88;7.50;;;;;;;7.82;100.00;101108.91;5027158;28;20057;-78
2022/10/10 02:14:36;;;;;;;15.90;6.57;;;;;;;7.80;100.00;101100.25;5019658;28;20045;-78
2022/10/10 02:17:07;;;;;;;16.92;6.88;;;;;;;7.82;100.00;101097.91;5030396;28;20474;-77
2022/10/10 02:19:34;;;;;;;13.98;6.20;;;;;;;7.81;100.00;101101.81;5012202;28;20091;-77
2022/10/10 02:22:01;;;;;;;15.35;6.95;;;;;;;7.80;100.00;101095.50;5037811;28;20045;-77
2022/10/10 02:24:28;;;;;;;15.52;6.57;;;;;;;7.76;100.00;101091.91;5027149;28;20057;-77
2022/10/10 02:27:07;;;;;;;13.60;6.05;;;;;;;7.77;100.00;101095.47;5027264;28;20045;-77
2022/10/10 02:29:36;;;;;;;15.77;6.38;;;;;;;7.78;100.00;101091.53;5021063;28;20198;-77
2022/10/10 02:32:15;;;;;;;14.18;6.75;;;;;;;7.75;100.00;101086.78;5026263;28;20069;-77
2022/10/10 02:34:48;;;;;;;13.38;5.97;;;;;;;7.69;100.00;101085.47;4997453;28;20041;-77
2022/10/10 02:37:16;;;;;;;13.32;5.88;;;;;;;7.72;100.00;101087.50;5036090;28;20104;-77
2022/10/10 02:39:46;;;;;;;17.23;6.22;;;;;;;7.72;100.00;101084.75;5019642;28;20092;-77
2022/10/10 02:42:16;;;;;;;14.45;5.78;;;;;;;7.74;100.00;101079.69;5005664;28;20046;-77
2022/10/10 02:44:45;;;;;;;14.30;6.97;;;;;;;7.69;100.00;101082.72;5030082;28;20054;-77
2022/10/10 02:47:12;;;;;;;19.40;6.57;;;;;;;7.65;100.00;101087.38;5022258;28;20077;-77
2022/10/10 02:49:39;;;;;;;12.75;5.90;;;;;;;7.62;100.00;101075.16;5025793;28;20405;-78
2022/10/10 02:52:06;;;;;;;14.73;6.07;;;;;;;7.58;100.00;101070.75;5022458;28;20538;-76
2022/10/10 02:54:32;;;;;;;14.80;6.60;;;;;;;7.51;100.00;101070.63;5026568;28;20064;-76
2022/10/10 02:56:59;;;;;;;13.95;5.68;;;;;;;7.54;100.00;101069.91;5037219;28;20050;-76
2022/10/10 02:59:25;;;;;;;13.00;5.88;;;;;;;7.53;100.00;101069.09;5025849;28;20052;-76
2022/10/10 03:01:52;;;;;;;14.98;6.18;;;;;;;7.52;100.00;101064.75;5017271;28;20449;-76
2022/10/10 03:04:18;;;;;;;12.80;6.05;;;;;;;7.50;100.00;101066.31;5025100;28;20061;-78
2022/10/10 03:06:45;;;;;;;15.30;5.63;;;;;;;7.46;100.00;101052.47;5020130;28;20049;-76
2022/10/10 03:09:12;;;;;;;14.52;6.35;;;;;;;7.50;100.00;101060.78;5022680;28;20060;-78
2022/10/10 03:11:38;;;;;;;15.65;6.00;;;;;;;7.53;100.00;101060.06;5024940;28;20064;-78
2022/10/10 03:14:05;;;;;;;14.52;5.93;;;;;;;7.53;100.00;101060.06;5031396;28;20058;-76
2022/10/10 03:16:31;;;;;;;21.00;7.53;;;;;;;7.49;100.00;101050.91;5028391;28;20053;-76
2022/10/10 03:18:58;;;;;;;17.27;7.63;;;;;;;7.48;100.00;101049.34;5017380;28;20407;-76
2022/10/10 03:21:24;;;;;;;13.93;6.68;;;;;;;7.51;100.00;101048.59;5014557;28;20128;-76
2022/10/10 03:23:51;;;;;;;16.80;6.32;;;;;;;7.51;100.00;101046.66;5021394;28;20064;-77
2022/10/10 03:26:17;;;;;;;26.15;13.57;;;;;;;7.53;100.00;101046.28;5029704;28;20282;-76
2022/10/10 03:28:44;;;;;;;20.42;9.68;;;;;;;7.55;100.00;101044.75;5010771;28;20080;-76
2022/10/10 03:31:10;;;;;;;20.20;8.05;;;;;;;7.56;100.00;101045.56;5025430;28;20049;-76
2022/10/10 03:33:37;;;;;;;23.92;10.90;;;;;;;7.52;100.00;101039.97;5020525;28;20041;-76
2022/10/10 03:36:03;;;;;;;17.38;7.22;;;;;;;7.56;100.00;101040.81;5020389;28;20045;-76
2022/10/10 03:38:30;;;;;;;14.85;6.30;;;;;;;7.54;100.00;101039.63;5018829;28;20041;-76
2022/10/10 03:40:56;;;;;;;11.65;5.05;;;;;;;7.57;100.00;101047.13;5024943;28;20045;-77
2022/10/10 03:43:23;;;;;;;15.90;6.05;;;;;;;7.54;100.00;101045.94;5004608;28;20083;-76
2022/10/10 03:45:50;;;;;;;13.40;6.00;;;;;;;7.54;100.00;101039.63;5034111;28;20053;-76
2022/10/10 03:48:16;;;;;;;13.88;6.10;;;;;;;7.51;100.00;101034.84;5028215;28;20061;-75
2022/10/10 03:50:43;;;;;;;13.73;5.60;;;;;;;7.44;100.00;101043.78;5023847;28;20046;-76
2022/10/10 03:53:10;;;;;;;14.50;6.35;;;;;;;7.46;100.00;101043.44;5023562;28;20053;-75
2022/10/10 03:55:39;;;;;;;12.60;5.50;;;;;;;7.45;100.00;101031.59;5020336;28;20092;-76
2022/10/10 03:58:06;;;;;;;14.18;5.63;;;;;;;7.49;100.00;101032.47;5007343;28;20041;-76
2022/10/10 04:00:32;;;;;;;14.65;5.53;;;;;;;7.44;100.00;101031.97;5022714;28;20050;-78
2022/10/10 04:02:59;;;;;;;16.25;6.07;;;;;;;7.47;100.00;101036.75;5032079;28;20045;-75
2022/10/10 04:05:25;;;;;;;12.13;5.53;;;;;;;7.45;100.00;101028.84;5024360;28;20045;-78
2022/10/10 04:07:52;;;;;;;11.80;5.50;;;;;;;7.46;100.00;101037.91;5018792;28;20050;-77
2022/10/10 04:10:18;;;;;;;13.52;6.00;;;;;;;7.45;100.00;101033.56;5022663;28;20409;-76
2022/10/10 04:12:45;;;;;;;17.42;6.32;;;;;;;7.44;100.00;101023.72;5031187;28;20624;-76
2022/10/10 04:15:11;;;;;;;13.80;5.40;;;;;;;7.50;100.00;101020.28;5029482;28;20064;-76
2022/10/10 04:17:38;;;;;;;14.10;6.55;;;;;;;7.50;100.00;101025.00;5031692;28;20401;-76
2022/10/10 04:20:04;;;;;;;14.98;5.72;;;;;;;7.48;100.00;101025.38;5020956;28;20081;-76
2022/10/10 04:22:31;;;;;;;13.68;5.57;;;;;;;7.46;100.00;101030.44;5025409;28;20055;-76
2022/10/10 04:24:57;;;;;;;13.23;5.75;;;;;;;7.48;100.00;101028.13;5001247;28;20386;-75
2022/10/10 04:27:24;;;;;;;13.50;5.40;;;;;;;7.50;100.00;101025.78;5016447;28;20050;-76
2022/10/10 04:29:50;;;;;;;14.38;5.50;;;;;;;7.51;100.00;101021.06;5025311;28;20048;-76
2022/10/10 04:32:17;;;;;;;11.57;5.30;;;;;;;7.47;100.00;101021.03;5019019;28;20050;-75
2022/10/10 04:34:43;;;;;;;12.70;5.30;;;;;;;7.49;100.00;101015.94;5030289;28;20052;-76
2022/10/10 04:37:10;;;;;;;14.18;5.63;;;;;;;7.43;100.00;101014.66;5012312;28;20104;-76
2022/10/10 04:39:36;;;;;;;12.73;5.78;;;;;;;7.44;100.00;101013.50;5023472;28;20056;-79
2022/10/10 04:42:03;;;;;;;18.38;6.20;;;;;;;7.45;100.00;101011.53;5016272;28;20052;-76
2022/10/10 04:44:29;;;;;;;15.65;7.65;;;;;;;7.49;100.00;101002.16;5019285;28;20049;-76
2022/10/10 04:46:56;;;;;;;18.38;6.13;;;;;;;7.48;100.00;100997.84;5020652;28;20559;-76
2022/10/10 04:49:22;;;;;;;18.70;5.95;;;;;;;7.51;100.00;101010.88;5025071;28;20049;-75
2022/10/10 04:51:49;;;;;;;17.08;5.80;;;;;;;7.49;100.00;101006.88;5027954;28;20071;-77
2022/10/10 04:54:15;;;;;;;13.45;5.93;;;;;;;7.49;100.00;101009.63;5002370;28;20058;-76
2022/10/10 04:56:42;;;;;;;11.55;5.32;;;;;;;7.43;100.00;101011.13;5024203;28;20060;-75
2022/10/10 04:59:08;;;;;;;13.05;5.70;;;;;;;7.33;100.00;101017.25;5023121;28;20045;-76
2022/10/10 05:01:35;;;;;;;16.35;6.75;;;;;;;7.29;100.00;101019.16;4998540;28;20053;-78
2022/10/10 05:04:02;;;;;;;15.32;6.65;;;;;;;7.37;100.00;101015.34;5010854;28;20053;-75
2022/10/10 05:06:28;;;;;;;16.08;6.20;;;;;;;7.41;100.00;101010.69;5019281;28;20510;-78
2022/10/10 05:08:55;;;;;;;17.70;6.90;;;;;;;7.44;100.00;101015.47;5021988;28;20532;-76
2022/10/10 05:11:21;;;;;;;17.92;6.95;;;;;;;7.45;100.00;101014.28;5023883;28;20093;-76
2022/10/10 05:13:49;;;;;;;16.58;7.22;;;;;;;7.47;100.00;101009.22;5015021;28;20057;-76
2022/10/10 05:16:16;;;;;;;15.63;6.68;;;;;;;7.42;100.00;101010.31;5016917;28;20054;-76
2022/10/10 05:18:42;;;;;;;13.40;6.50;;;;;;;7.34;100.00;101013.31;5022986;28;20054;-76
2022/10/10 05:21:10;;;;;;;17.25;7.20;;;;;;;7.39;100.00;101010.28;5008281;28;20060;-76
2022/10/10 05:23:37;;;;;;;16.00;6.30;;;;;;;7.40;100.00;101009.88;5016270;28;20050;-76
2022/10/10 05:26:04;;;;;;;14.23;6.90;;;;;;;7.38;100.00;101006.72;5020517;28;20119;-76
2022/10/10 05:28:30;;;;;;;18.40;7.55;;;;;;;7.37;100.00;101018.91;5027031;28;20053;-76
2022/10/10 05:30:57;;;;;;;20.67;8.63;;;;;;;7.33;100.00;101007.00;5010015;28;20046;-77
2022/10/10 05:33:23;;;;;;;18.33;8.65;;;;;;;7.33;100.00;101011.75;5021139;28;20046;-76
2022/10/10 05:35:50;;;;;;;16.10;7.20;;;;;;;7.34;100.00;101011.38;5011020;28;20053;-76
2022/10/10 05:38:17;;;;;;;19.65;7.25;;;;;;;7.29;100.00;101003.41;5026993;28;20052;-76
2022/10/10 05:40:43;;;;;;;17.67;6.53;;;;;;;7.28;100.00;101003.78;5024847;28;20048;-76
2022/10/10 05:43:09;;;;;;;19.80;9.48;;;;;;;7.34;100.00;101011.38;4993740;28;20165;-76
2022/10/10 05:45:36;;;;;;;18.17;8.05;;;;;;;7.35;100.00;101010.22;5029412;28;20037;-76
2022/10/10 05:48:02;;;;;;;24.00;9.93;;;;;;;7.38;100.00;101008.66;5033182;28;20489;-76
2022/10/10 05:50:37;;;;;;;16.60;7.85;;;;;;;7.40;100.00;101004.38;5011592;28;20046;-76
2022/10/10 05:53:05;;;;;;;14.80;7.03;;;;;;;7.42;100.00;101007.56;5026788;28;20048;-76
2022/10/10 05:55:32;;;;;;;15.90;7.22;;;;;;;7.44;100.00;101005.25;5020431;28;20409;-76
2022/10/10 05:57:59;;;;;;;18.05;7.72;;;;;;;7.45;100.00;101006.84;5023853;28;20115;-76
2022/10/10 06:00:25;;;;;;;20.35;8.68;;;;;;;7.45;100.00;101006.03;5030037;28;20064;-76
2022/10/10 06:02:52;;;;;;;18.80;8.05;;;;;;;7.39;100.00;101007.53;5032231;28;20440;-77
2022/10/10 06:05:19;;;;;;;18.13;8.30;;;;;;;7.36;100.00;101003.53;5031725;28;20056;-76
2022/10/10 06:07:45;;;;;;;19.20;7.45;;;;;;;7.38;100.00;101012.22;5028393;28;20063;-76
2022/10/10 06:10:42;;;;;;;19.25;8.40;;;;;;;7.44;100.00;101004.44;5025167;28;20077;-76
2022/10/10 06:13:10;;;;;;;21.27;9.52;;;;;;;7.48;100.00;101002.53;5031482;28;20041;-76
2022/10/10 06:15:36;;;;;;;20.45;8.25;;;;;;;7.55;100.00;101017.22;5051284;28;20554;-76
2022/10/10 06:18:03;;;;;;;19.40;8.13;;;;;;;7.55;100.00;101011.72;5043381;28;20053;-76
2022/10/10 06:20:29;;;;;;;19.35;8.85;;;;;;;7.66;100.00;101015.41;5034410;28;20051;-76
2022/10/10 06:22:55;;;;;;;22.17;9.65;;;;;;;7.72;100.00;101024.16;5039213;28;20048;-77
2022/10/10 06:25:22;;;;;;;19.40;7.95;;;;;;;7.75;100.00;101015.16;5028677;28;20136;-77
2022/10/10 06:28:05;;;;;;;19.58;8.07;;;;;;;7.78;100.00;101028.19;5019414;28;20507;-76
2022/10/10 06:30:33;;;;;;;19.65;9.20;;;;;;;7.78;100.00;101019.94;5021125;28;20556;-77
2022/10/10 06:33:00;;;;;;;20.13;9.18;;;;;;;7.81;100.00;101030.22;5024304;28;20069;-77
2022/10/10 06:35:27;;;;;;;24.88;11.38;;;;;;;7.87;100.00;101025.97;5026477;28;20042;-77
2022/10/10 06:37:53;;;;;;;26.05;11.23;;;;;;;7.91;100.00;101026.81;5032859;28;20660;-77
2022/10/10 06:40:20;;;;;;;21.63;10.30;;;;;;;7.98;100.00;101027.72;5026149;28;20061;-76
2022/10/10 06:42:46;;;;;;;25.45;10.68;;;;;;;8.08;100.00;101034.53;5030141;28;20037;-77
2022/10/10 06:45:13;;;;;;;30.67;15.00;;;;;;;8.12;100.00;101038.13;5040643;28;20072;-77
2022/10/10 06:47:40;;;;;;;26.63;14.70;;;;;;;8.18;100.00;101038.59;5010101;28;20150;-77
2022/10/10 06:50:07;;;;;;;31.73;14.85;;;;;;;8.22;100.00;101043.03;5024381;28;20042;-77
2022/10/10 06:52:34;;;;;;;22.67;12.13;;;;;;;8.29;100.00;101043.13;5017181;28;20049;-77
2022/10/10 06:55:00;;;;;;;25.80;12.07;;;;;;;8.38;100.00;101035.38;5028247;28;20054;-77
2022/10/10 06:57:27;;;;;;;30.55;11.27;;;;;;;8.41;100.00;101031.88;5026913;28;20050;-77
2022/10/10 06:59:53;;;;;;;28.45;11.23;;;;;;;8.53;100.00;101037.13;5014348;28;20778;-76
2022/10/10 07:02:21;;;;;;;29.02;11.35;;;;;;;8.66;100.00;101032.16;5026876;28;20049;-76
2022/10/10 07:04:48;;;;;;;33.67;12.20;;;;;;;8.75;100.00;101040.94;5038521;28;20048;-77
2022/10/10 07:07:14;;;;;;;29.85;12.10;;;;;;;8.86;100.00;101041.84;5021720;28;20076;-76
2022/10/10 07:09:41;;;;;;;30.88;13.32;;;;;;;8.97;100.00;101037.22;5024792;28;20045;-76
2022/10/10 07:12:08;;;;;;;30.77;13.50;;;;;;;9.08;100.00;101038.13;5027397;28;20084;-76
2022/10/10 07:14:34;;;;;;;30.15;13.88;;;;;;;9.19;100.00;101037.06;5015537;28;20080;-76
2022/10/10 07:17:01;;;;;;;29.55;11.98;;;;;;;9.32;100.00;101038.34;5025316;28;20057;-76
2022/10/10 07:19:28;;;;;;;31.45;13.55;;;;;;;9.45;100.00;101036.91;5008141;28;20041;-75
2022/10/10 07:21:54;;;;;;;24.02;11.75;;;;;;;9.54;100.00;101026.31;5020541;28;20061;-76
2022/10/10 07:24:21;;;;;;;26.73;11.27;;;;;;;9.70;100.00;101029.63;5016754;28;20045;-76
2022/10/10 07:26:51;;;;;;;26.48;11.10;;;;;;;9.87;100.00;101040.00;5029590;28;20430;-76
2022/10/10 07:29:27;;;;;;;24.40;10.73;;;;;;;10.04;100.00;101039.31;5019010;28;20048;-74
2022/10/10 07:31:53;;;;;;;28.50;12.80;;;;;;;10.18;100.00;101033.91;5024035;28;20059;-74
2022/10/10 07:34:20;;;;;;;23.67;10.32;;;;;;;10.36;100.00;101037.53;5024155;28;20065;-74
2022/10/10 07:36:49;;;;;;;30.15;11.70;;;;;;;10.49;100.00;101036.03;5018571;28;20091;-75
2022/10/10 07:39:23;;;;;;;23.95;9.93;;;;;;;10.81;100.00;101040.88;5030338;28;20071;-75
2022/10/10 07:41:51;;;;;;;24.97;7.97;;;;;;;11.07;100.00;101044.09;5031543;28;20049;-75
2022/10/10 07:44:18;;;;;;;26.83;8.38;;;;;;;11.33;100.00;101045.72;5024421;28;20308;-74
2022/10/10 07:46:46;;;;;;;22.58;8.32;;;;;;;11.49;100.00;101046.94;5026726;28;20053;-76
2022/10/10 07:49:12;;;;;;;21.42;5.97;;;;;;;11.73;100.00;101043.41;5004251;28;20054;-73
2022/10/10 07:51:39;;;;;;;22.33;6.38;;;;;;;12.01;100.00;101048.91;5024140;28;20573;-75
2022/10/10 07:54:05;;;;;;;20.42;7.70;;;;;;;12.21;100.00;101049.25;5017567;28;20049;-74
2022/10/10 07:56:32;;;;;;;19.98;6.38;;;;;;;12.36;100.00;101053.59;5006914;28;20118;-75
2022/10/10 07:58:59;;;;;;;21.92;7.57;;;;;;;12.51;100.00;101055.09;5027595;28;20061;-76
2022/10/10 08:01:26;;;;;;;23.52;7.00;;;;;;;12.67;100.00;101053.47;5020401;28;20280;-75
2022/10/10 08:03:54;;;;;;;25.02;6.93;;;;;;;12.78;100.00;101056.19;5030621;28;20056;-76
2022/10/10 08:06:21;;;;;;;19.17;6.53;;;;;;;12.93;100.00;101052.16;5014209;28;20053;-76
2022/10/10 08:08:48;;;;;;;14.77;5.03;;;;;;;13.10;100.00;101065.19;5022293;28;20046;-76
2022/10/10 08:11:19;;;;;;;19.35;5.63;;;;;;;13.31;100.00;101061.47;5031492;28;21104;-75
2022/10/10 08:13:45;;;;;;;22.02;5.68;;;;;;;13.54;100.00;101062.50;5026451;28;20045;-75
2022/10/10 08:16:12;;;;;;;25.77;6.45;;;;;;;13.70;100.00;101057.19;5018947;28;20099;-75
2022/10/10 08:18:39;;;;;;;16.70;7.28;;;;;;;13.79;100.00;101051.16;5026600;28;20038;-75
2022/10/10 08:21:11;;;;;;;13.02;4.97;;;;;;;13.92;100.00;101066.13;5024685;28;20049;-75
2022/10/10 08:23:38;;;;;;;19.38;5.80;;;;;;;14.08;100.00;101058.84;5030909;28;20106;-75
2022/10/10 08:26:07;;;;;;;19.20;5.38;;;;;;;14.26;100.00;101059.47;5025752;28;20042;-75
2022/10/10 08:28:34;;;;;;;13.75;5.85;;;;;;;14.43;100.00;101055.69;5044165;28;20054;-76
2022/10/10 08:31:13;;;;;;;17.10;4.80;;;;;;;14.55;100.00;101049.56;5043426;28;20076;-75
2022/10/10 08:33:41;;;;;;;15.80;5.30;;;;;;;14.73;100.00;101060.50;5038800;28;20061;-75
2022/10/10 08:36:11;;;;;;;12.95;4.53;;;;;;;14.86;100.00;101059.56;5040640;28;20094;-75
2022/10/10 08:38:37;;;;;;;15.55;5.20;;;;;;;15.04;100.00;101053.72;5019154;28;20049;-75
2022/10/10 08:41:42;;;;;;;14.27;4.63;;;;;;;15.20;100.00;101051.91;5038597;28;20055;-75
2022/10/10 08:44:27;;;;;;;11.82;4.07;;;;;;;15.34;100.00;101062.84;5011666;28;20126;-76
2022/10/10 08:47:01;;;;;;;7.60;2.10;;;;;;;15.42;100.00;101058.75;5027263;28;20095;-75
2022/10/10 08:49:46;;;;;;;15.30;5.07;;;;;;;15.71;100.00;101056.31;5033662;28;20048;-75
2022/10/10 08:52:29;;;;;;;10.93;3.53;;;;;;;15.77;100.00;101056.59;5043152;28;20057;-75
2022/10/10 08:54:57;;;;;;;9.63;3.42;;;;;;;15.98;100.00;101061.81;5032405;28;20676;-75
2022/10/10 08:57:24;;;;;;;6.60;1.88;;;;;;;16.05;100.00;101065.28;5034353;28;20060;-76
2022/10/10 08:59:55;;;;;;;6.53;1.80;;;;;;;16.23;100.00;101062.16;5017027;28;20056;-77
2022/10/10 09:02:40;;;;;;;7.93;3.08;;;;;;;16.40;100.00;101059.03;5031869;28;20073;-77
2022/10/10 09:05:37;;;;;;;12.75;3.30;;;;;;;16.66;100.00;101071.31;5023854;28;20049;-77
2022/10/10 09:08:23;;;;;;;15.60;3.75;;;;;;;16.87;100.00;101052.09;5026624;28;20484;-78
2022/10/10 09:11:38;;;;;;;8.90;3.83;;;;;;;16.91;100.00;101072.38;5022721;28;20057;-77
2022/10/10 09:14:10;;;;;;;7.10;2.33;;;;;;;16.99;100.00;101073.81;4951029;28;20054;-79
2022/10/10 09:16:43;;;;;;;8.93;2.72;;;;;;;17.12;100.00;101063.53;4962017;28;20051;-75
2022/10/10 09:19:31;;;;;;;3.70;1.52;;;;;;;17.18;100.00;101066.59;5004343;28;20095;-76
2022/10/10 09:22:02;;;;;;;14.57;3.90;;;;;;;17.44;100.00;101071.22;5030553;28;20771;-76
2022/10/10 09:24:48;;;;;;;8.40;3.13;;;;;;;17.60;100.00;101071.22;5043242;28;20045;-75
2022/10/10 09:27:23;;;;;;;5.88;1.80;;;;;;;17.56;98.68;101060.09;5030078;28;20056;-74
2022/10/10 09:29:55;;;;;;;4.63;1.98;;;;;;;17.66;95.50;101075.09;5043853;28;20045;-74
2022/10/10 09:32:27;;;;;;;11.48;3.45;;;;;;;17.87;96.35;101071.75;5048214;28;20052;-75
2022/10/10 09:35:21;;;;;;;5.32;2.10;;;;;;;17.85;93.28;101068.59;5044257;28;20053;-74
2022/10/10 09:37:52;;;;;;;3.83;1.52;;;;;;;17.98;91.28;101075.84;5008985;28;20053;-74
2022/10/10 09:40:28;;;;;;;10.63;3.45;;;;;;;18.19;90.14;101080.09;5014947;28;20056;-74
2022/10/10 09:42:55;;;;;;;13.13;3.30;;;;;;;18.43;91.55;101084.31;5015189;28;20057;-74
2022/10/10 09:45:37;;;;;;;3.83;2.17;;;;;;;18.43;87.91;101089.91;5020155;28;20046;-74
2022/10/10 09:48:04;;;;;;;5.13;2.25;;;;;;;18.44;86.33;101085.88;5010619;28;20049;-75
2022/10/10 09:50:30;;;;;;;3.47;1.77;;;;;;;18.59;87.33;101081.44;5015961;28;20069;-75
2022/10/10 09:52:57;;;;;;;9.75;2.45;;;;;;;18.68;85.15;101075.97;4996995;28;20053;-74
2022/10/10 09:55:36;;;;;;;3.08;1.15;;;;;;;18.80;84.93;101080.06;5014879;28;20053;-74
2022/10/10 09:58:40;;;;;;;3.25;1.45;;;;;;;18.84;85.03;101075.91;5014236;28;20056;-74
2022/10/10 10:01:13;;;;;;;11.18;2.85;;;;;;;18.68;83.30;101092.00;5015902;28;20781;-74
2022/10/10 10:03:39;;;;;;;9.20;2.53;;;;;;;18.73;83.17;101072.63;4994376;28;20061;-74
2022/10/10 10:06:12;;;;;;;7.80;2.35;;;;;;;18.62;83.33;101090.97;4993500;28;20056;-74
2022/10/10 10:08:39;;;;;;;8.13;2.42;;;;;;;18.74;84.91;101087.44;5010550;28;20060;-74
2022/10/10 10:11:24;;;;;;;8.70;2.17;;;;;;;18.69;84.32;101071.94;5012436;28;20052;-73
2022/10/10 10:13:55;;;;;;;6.75;1.88;;;;;;;18.76;84.44;101080.13;5011941;28;20053;-74
2022/10/10 10:16:33;;;;;;;3.50;1.27;;;;;;;18.83;84.62;101082.72;4993499;28;20099;-74
2022/10/10 10:19:01;;;;;;;11.32;2.85;;;;;;;18.69;83.13;101085.19;5014990;28;20060;-74
2022/10/10 10:21:28;;;;;;;3.45;1.63;;;;;;;18.66;83.71;101092.44;5011253;28;20045;-73
2022/10/10 10:24:18;;;;;;;4.20;1.67;;;;;;;18.45;85.61;101098.66;5011692;28;20060;-75
2022/10/10 10:26:46;;;;;;;8.38;2.20;;;;;;;18.52;86.64;101092.06;5014562;28;20049;-75
2022/10/10 10:29:32;;;;;;;13.35;2.90;;;;;;;18.67;87.80;101091.22;5015177;28;20048;-75
2022/10/10 10:32:29;;;;;;;6.18;2.28;;;;;;;18.68;86.69;101094.81;5011018;28;20056;-75
2022/10/10 10:35:09;;;;;;;5.28;2.00;;;;;;;18.79;83.86;101090.47;5010910;28;20057;-75
2022/10/10 10:38:14;;;;;;;2.22;1.20;;;;;;;19.04;83.80;101095.34;5013075;28;20057;-76
2022/10/10 10:40:48;;;;;;;2.55;1.33;;;;;;;19.19;82.50;101099.28;4994311;28;20156;-75
2022/10/10 10:43:32;;;;;;;15.07;4.00;;;;;;;19.60;80.77;101100.03;5012784;28;20703;-75
2022/10/10 10:46:02;;;;;;;12.27;2.75;;;;;;;19.45;79.93;101095.31;5014738;28;20045;-73
2022/10/10 10:48:34;;;;;;;5.78;1.65;;;;;;;19.78;77.41;101105.09;5014976;28;20057;-76
2022/10/10 10:51:29;;;;;;;5.47;1.80;;;;;;;19.76;77.63;101107.53;5017216;28;20057;-75
2022/10/10 10:54:08;;;;;;;7.68;2.45;;;;;;;19.96;75.49;101103.25;5009465;28;20475;-74
2022/10/10 10:56:39;;;;;;;6.22;2.13;;;;;;;20.04;74.04;101079.31;5020695;28;20059;-75
2022/10/10 10:59:49;;;;;;;7.60;4.10;;;;;;;20.75;71.91;101094.44;5020138;28;20053;-75
2022/10/10 11:02:51;;;;;;;7.65;2.65;;;;;;;20.97;68.74;101094.47;4998702;28;20187;-74
2022/10/10 11:05:42;;;;;;;7.30;2.28;;;;;;;20.90;69.98;101089.88;4989516;28;20304;-75
2022/10/10 11:08:34;;;;;;;7.47;2.45;;;;;;;20.57;70.61;101090.72;5007181;28;20079;-75
2022/10/10 11:11:01;;;;;;;2.85;1.25;;;;;;;20.74;68.63;101094.91;5017531;28;20212;-75
2022/10/10 11:13:33;;;;;;;10.48;2.55;;;;;;;20.90;67.00;101097.53;5008883;28;20239;-75
2022/10/10 11:16:15;;;;;;;10.32;2.22;;;;;;;20.70;68.23;101106.31;5011886;28;20425;-75
2022/10/10 11:19:14;;;;;;;4.93;1.33;;;;;;;20.63;68.84;101094.53;4991120;28;20772;-75
2022/10/10 11:21:48;;;;;;;5.18;1.80;;;;;;;20.81;67.77;101089.81;5008275;28;20057;-74
2022/10/10 11:24:21;;;;;;;12.30;2.58;;;;;;;20.86;67.70;101094.88;5010538;28;20049;-74
2022/10/10 11:26:54;;;;;;;2.08;1.50;;;;;;;20.89;68.15;101093.16;5011601;28;20057;-74
2022/10/10 11:29:26;;;;;;;10.38;3.05;;;;;;;20.78;65.50;101099.16;5011789;28;20061;-74
2022/10/10 11:31:59;;;;;;;13.10;2.88;;;;;;;20.67;67.18;101083.94;5010024;28;20767;-75
2022/10/10 11:34:51;;;;;;;2.30;1.27;;;;;;;20.16;67.52;101101.00;5012096;28;20852;-74
2022/10/10 11:37:26;;;;;;;11.15;1.83;;;;;;;20.45;69.04;101095.16;5008682;28;20053;-74